Time;durP1;ratioP1;P1;durP2;ratioP2;P2;SDS_P1;SDS_P2;PMS_P1;PMS_P2;Temp;Humidity;BMP_temperature;BMP_pressure;BME280_temperature;BME280_humidity;BME280_pressure;Samples;Min_cycle;Max_cycle;Signal;HPM_P1;HPM_P2
2022/10/02 00:00:21;;;;;;;7.18;1.70;;;13.70;99.90;;;;;;4976316;28;20023;-83
2022/10/02 00:03:03;;;;;;;11.35;2.08;;;13.70;99.90;;;;;;4976535;28;20101;-83
2022/10/02 00:05:45;;;;;;;5.32;2.17;;;13.60;99.90;;;;;;4977397;28;20398;-83
2022/10/02 00:08:23;;;;;;;6.00;1.20;;;13.50;99.90;;;;;;4976252;28;20121;-83
2022/10/02 00:11:10;;;;;;;7.97;1.20;;;13.40;99.90;;;;;;4977575;28;20018;-84
2022/10/02 00:13:46;;;;;;;6.32;1.38;;;13.20;99.90;;;;;;4989385;28;20530;-85
2022/10/02 00:16:38;;;;;;;4.47;0.98;;;13.10;99.90;;;;;;4977670;28;20031;-84
2022/10/02 00:19:04;;;;;;;4.13;0.80;;;13.00;99.90;;;;;;4971341;28;20039;-84
2022/10/02 00:21:57;;;;;;;4.03;1.13;;;12.80;99.90;;;;;;4986863;28;20141;-83
2022/10/02 00:24:31;;;;;;;5.18;0.93;;;12.80;99.90;;;;;;4962648;28;20045;-84
2022/10/02 00:27:14;;;;;;;3.05;0.65;;;12.70;99.90;;;;;;4960651;28;20462;-84
2022/10/02 00:29:54;;;;;;;3.58;0.65;;;12.60;99.90;;;;;;4995600;28;20034;-83
2022/10/02 00:32:57;;;;;;;3.67;0.77;;;12.50;99.90;;;;;;4987760;28;20023;-84
2022/10/02 00:35:54;;;;;;;3.67;0.73;;;12.50;99.90;;;;;;4998081;28;20015;-83
2022/10/02 00:38:48;;;;;;;3.42;0.88;;;12.40;99.90;;;;;;4979529;28;20027;-84
2022/10/02 00:41:33;;;;;;;5.10;0.80;;;12.40;99.90;;;;;;4976793;28;20019;-84
2022/10/02 00:44:15;;;;;;;3.28;0.70;;;12.30;99.90;;;;;;4957380;28;20035;-84
2022/10/02 00:46:49;;;;;;;2.75;0.70;;;12.30;99.90;;;;;;4980745;28;20034;-84
2022/10/02 00:49:51;;;;;;;3.63;1.00;;;12.20;99.90;;;;;;4975574;28;20027;-83
2022/10/02 00:52:30;;;;;;;3.72;1.00;;;12.20;99.90;;;;;;4976632;28;20031;-83
2022/10/02 00:55:24;;;;;;;2.28;0.60;;;12.20;99.90;;;;;;4963019;28;20099;-81
2022/10/02 00:58:12;;;;;;;2.35;0.60;;;12.20;99.90;;;;;;4979479;28;20058;-82
2022/10/02 01:00:43;;;;;;;2.42;0.80;;;12.30;99.90;;;;;;4978019;28;20032;-81
2022/10/02 01:03:33;;;;;;;3.80;1.10;;;12.30;99.90;;;;;;4976220;28;20544;-83
2022/10/02 01:05:59;;;;;;;6.03;1.10;;;12.30;99.90;;;;;;4977394;28;20039;-82
2022/10/02 01:08:26;;;;;;;2.03;0.77;;;12.20;99.90;;;;;;4975717;28;20491;-84
2022/10/02 01:10:53;;;;;;;2.92;1.15;;;12.30;99.90;;;;;;4975569;28;20023;-83
2022/10/02 01:13:19;;;;;;;1.83;0.70;;;12.30;99.90;;;;;;4975769;28;20374;-83
2022/10/02 01:15:53;;;;;;;3.75;1.02;;;12.30;99.90;;;;;;4975508;28;20039;-84
2022/10/02 01:18:19;;;;;;;;;;;12.30;99.90;;;;;;4976148;28;20114;-84
2022/10/02 01:20:48;;;;;;;3.78;1.17;;;12.20;99.90;;;;;;4959593;28;20388;-84
2022/10/02 01:23:48;;;;;;;2.25;0.90;;;12.30;99.90;;;;;;4975481;28;20023;-83
2022/10/02 01:26:15;;;;;;;3.13;1.00;;;12.40;99.90;;;;;;4961767;28;20041;-84
2022/10/02 01:28:41;;;;;;;4.50;1.10;;;12.40;99.90;;;;;;4976668;28;20018;-83
2022/10/02 01:31:13;;;;;;;3.88;1.35;;;12.40;99.90;;;;;;4975447;28;20481;-84
2022/10/02 01:33:41;;;;;;;4.40;1.30;;;12.30;99.90;;;;;;4975166;28;20180;-83
2022/10/02 01:36:11;;;;;;;5.40;1.20;;;12.30;99.90;;;;;;4975083;28;20035;-83
2022/10/02 01:38:40;;;;;;;3.53;1.52;;;12.20;99.90;;;;;;4975116;28;20022;-83
2022/10/02 01:41:08;;;;;;;3.72;1.55;;;12.30;99.90;;;;;;4966551;28;20023;-83
2022/10/02 01:43:55;;;;;;;4.13;1.85;;;12.30;99.90;;;;;;4956821;28;20023;-83
2022/10/02 01:46:23;;;;;;;4.43;1.80;;;12.30;99.90;;;;;;4963581;28;20075;-83
2022/10/02 01:49:11;;;;;;;3.70;1.98;;;12.30;99.90;;;;;;4971824;28;20058;-83
2022/10/02 01:51:45;;;;;;;3.50;1.58;;;12.40;99.90;;;;;;4970216;28;20478;-83
2022/10/02 01:54:35;;;;;;;9.88;3.13;;;12.40;99.90;;;;;;4976039;28;20030;-82
2022/10/02 01:57:46;;;;;;;4.72;2.33;;;12.50;99.90;;;;;;4974538;28;20134;-83
2022/10/02 02:00:24;;;;;;;4.90;2.10;;;12.50;99.90;;;;;;4970030;28;20414;-83
2022/10/02 02:03:22;;;;;;;5.43;2.25;;;12.60;99.90;;;;;;4959812;28;20030;-83
2022/10/02 02:06:19;;;;;;;5.10;2.20;;;12.70;99.90;;;;;;4990803;28;20466;-85
2022/10/02 02:08:53;;;;;;;5.75;2.78;;;12.70;99.90;;;;;;4974720;28;20118;-84
2022/10/02 02:11:22;;;;;;;5.72;3.00;;;12.70;99.90;;;;;;4974753;28;20065;-85
2022/10/02 02:13:57;;;;;;;6.15;2.53;;;12.80;99.90;;;;;;4974760;28;20027;-84
2022/10/02 02:16:41;;;;;;;7.35;3.10;;;12.80;99.90;;;;;;4976400;28;20034;-84
2022/10/02 02:19:12;;;;;;;8.63;3.85;;;12.80;99.90;;;;;;4960840;28;20031;-85
2022/10/02 02:21:41;;;;;;;8.77;3.70;;;12.80;99.90;;;;;;4975055;28;20035;-84
2022/10/02 02:24:34;;;;;;;7.53;3.75;;;12.70;99.90;;;;;;4981571;28;20378;-84
2022/10/02 02:27:01;;;;;;;;;;;12.70;99.90;;;;;;4998070;28;20030;-82
2022/10/02 02:29:31;;;;;;;7.53;3.70;;;12.70;99.90;;;;;;5004209;28;20368;-84
2022/10/02 02:31:59;;;;;;;9.45;3.88;;;12.70;99.90;;;;;;4976300;28;20027;-84
2022/10/02 02:34:36;;;;;;;7.38;4.30;;;12.60;99.90;;;;;;4975840;28;20045;-84
2022/10/02 02:37:10;;;;;;;7.55;4.38;;;12.60;99.90;;;;;;4991442;28;20029;-85
2022/10/02 02:39:56;;;;;;;9.60;4.35;;;12.60;99.90;;;;;;4974755;28;20055;-85
2022/10/02 02:42:29;;;;;;;8.68;3.67;;;12.70;99.90;;;;;;4990674;28;20030;-85
2022/10/02 02:44:59;;;;;;;10.35;3.83;;;12.60;99.90;;;;;;4990726;28;20023;-84
2022/10/02 02:47:53;;;;;;;10.93;3.72;;;12.60;99.90;;;;;;4957981;28;20058;-84
2022/10/02 02:50:36;;;;;;;7.55;3.20;;;12.70;99.90;;;;;;4973786;28;20035;-84
2022/10/02 02:53:08;;;;;;;9.40;3.13;;;12.80;99.90;;;;;;4961144;28;20034;-83
2022/10/02 02:55:44;;;;;;;8.15;3.40;;;12.70;99.90;;;;;;4954769;28;20027;-84
2022/10/02 02:58:14;;;;;;;7.40;2.60;;;12.70;99.90;;;;;;4968672;28;20058;-84
2022/10/02 03:00:39;;;;;;;5.95;2.30;;;12.60;99.90;;;;;;4974654;28;20110;-83
2022/10/02 03:03:06;;;;;;;7.15;2.72;;;12.60;99.90;;;;;;4974894;28;20133;-84
2022/10/02 03:05:37;;;;;;;6.40;2.40;;;12.60;99.90;;;;;;4973582;28;20441;-83
2022/10/02 03:08:11;;;;;;;5.88;2.30;;;12.50;99.90;;;;;;4974076;28;20096;-84
2022/10/02 03:10:49;;;;;;;4.82;2.20;;;12.50;99.90;;;;;;4975056;28;20466;-84
2022/10/02 03:13:31;;;;;;;8.05;2.85;;;12.50;99.90;;;;;;4983224;28;20050;-84
2022/10/02 03:16:26;;;;;;;8.90;2.30;;;12.50;99.90;;;;;;4979702;28;20023;-84
2022/10/02 03:19:05;;;;;;;7.57;1.75;;;12.50;99.90;;;;;;4974722;28;20282;-84
2022/10/02 03:21:53;;;;;;;10.80;2.67;;;12.50;99.90;;;;;;4973691;28;20019;-84
2022/10/02 03:24:48;;;;;;;5.82;2.10;;;12.40;99.90;;;;;;4973696;28;20118;-83
2022/10/02 03:27:59;;;;;;;5.45;1.65;;;12.40;99.90;;;;;;4973170;28;20027;-83
2022/10/02 03:30:26;;;;;;;5.78;1.60;;;12.30;99.90;;;;;;4973783;28;20019;-83
2022/10/02 03:32:59;;;;;;;5.32;1.40;;;12.30;99.90;;;;;;4989610;28;20025;-83
2022/10/02 03:35:25;;;;;;;11.73;2.22;;;12.30;99.90;;;;;;4973810;28;20031;-84
2022/10/02 03:37:55;;;;;;;6.43;1.63;;;12.30;99.90;;;;;;4974466;28;20023;-84
2022/10/02 03:40:26;;;;;;;7.55;1.90;;;12.30;99.90;;;;;;4973851;28;20015;-84
2022/10/02 03:42:57;;;;;;;6.70;2.03;;;12.20;99.90;;;;;;4974283;28;20023;-84
2022/10/02 03:45:25;;;;;;;7.90;2.50;;;12.30;99.90;;;;;;4973634;28;20112;-84
2022/10/02 03:47:51;;;;;;;6.97;1.60;;;12.30;99.90;;;;;;4974018;28;20049;-85
2022/10/02 03:50:20;;;;;;;5.15;1.50;;;12.30;99.90;;;;;;4962152;28;20023;-84
2022/10/02 03:52:50;;;;;;;7.95;2.17;;;12.40;99.90;;;;;;4990225;28;20022;-84
2022/10/02 03:55:19;;;;;;;10.38;1.88;;;12.50;99.90;;;;;;4959646;28;20109;-84
2022/10/02 03:57:46;;;;;;;6.20;1.75;;;12.50;99.90;;;;;;4974723;28;20117;-85
2022/10/02 04:00:18;;;;;;;8.15;2.03;;;12.40;99.90;;;;;;4974484;28;20050;-84
2022/10/02 04:03:14;;;;;;;7.30;1.85;;;12.40;99.90;;;;;;4973340;28;20031;-85
2022/10/02 04:06:12;;;;;;;9.25;1.85;;;12.40;99.90;;;;;;4973381;28;20146;-84
2022/10/02 04:08:55;;;;;;;7.15;2.03;;;12.40;99.90;;;;;;4974447;28;20430;-84
2022/10/02 04:11:47;;;;;;;7.10;1.80;;;12.40;99.90;;;;;;4994241;28;20027;-85
2022/10/02 04:14:16;;;;;;;7.85;1.90;;;12.30;99.90;;;;;;4988206;28;20099;-82
2022/10/02 04:17:03;;;;;;;5.10;2.00;;;12.40;99.90;;;;;;4999637;28;20043;-84
2022/10/02 04:19:38;;;;;;;11.45;2.65;;;12.30;99.90;;;;;;4989204;28;20114;-85
2022/10/02 04:22:26;;;;;;;10.77;2.20;;;12.40;99.90;;;;;;4974093;28;20031;-85
2022/10/02 04:24:58;;;;;;;9.07;2.45;;;12.40;99.90;;;;;;4979009;28;20118;-83
2022/10/02 04:27:52;;;;;;;6.50;1.63;;;12.30;99.90;;;;;;4977820;28;20026;-85
2022/10/02 04:30:19;;;;;;;9.65;2.00;;;12.30;99.90;;;;;;4977065;28;20470;-85
2022/10/02 04:32:49;;;;;;;8.07;1.85;;;12.20;99.90;;;;;;4992932;28;20015;-84
2022/10/02 04:35:14;;;;;;;7.05;1.80;;;12.20;99.90;;;;;;4976474;28;20114;-84
2022/10/02 04:37:53;;;;;;;8.43;1.90;;;12.20;99.90;;;;;;4976355;28;20118;-84
2022/10/02 04:40:25;;;;;;;5.60;1.80;;;12.20;99.90;;;;;;4977085;28;20026;-84
2022/10/02 04:43:02;;;;;;;7.88;1.75;;;12.20;99.90;;;;;;4990364;28;20497;-84
2022/10/02 04:45:36;;;;;;;7.68;2.03;;;12.20;99.90;;;;;;4976765;28;20027;-84
2022/10/02 04:48:40;;;;;;;5.68;1.42;;;12.10;99.90;;;;;;4976266;28;20066;-83
2022/10/02 04:51:19;;;;;;;7.17;2.20;;;12.10;99.90;;;;;;4992308;28;20023;-84
2022/10/02 04:53:56;;;;;;;7.35;2.33;;;12.10;99.90;;;;;;4976169;28;20023;-84
2022/10/02 04:56:26;;;;;;;7.55;1.88;;;12.10;99.90;;;;;;4975882;28;20041;-84
2022/10/02 04:59:13;;;;;;;7.20;1.88;;;12.10;99.90;;;;;;4976057;28;20504;-84
2022/10/02 05:02:20;;;;;;;7.93;1.80;;;12.10;99.90;;;;;;4975599;28;20570;-83
2022/10/02 05:05:07;;;;;;;5.05;1.85;;;12.10;99.90;;;;;;4977297;28;20038;-83
2022/10/02 05:07:51;;;;;;;9.50;2.60;;;12.10;99.90;;;;;;4980512;28;20054;-83
2022/10/02 05:10:46;;;;;;;9.52;2.47;;;12.10;99.90;;;;;;4976105;28;20054;-83
2022/10/02 05:13:46;;;;;;;11.00;3.00;;;12.10;99.90;;;;;;4976868;28;20043;-83
2022/10/02 05:16:30;;;;;;;8.18;2.58;;;12.20;99.90;;;;;;4977009;28;20031;-83
2022/10/02 05:19:29;;;;;;;9.23;2.88;;;12.20;99.90;;;;;;4975525;28;20023;-83
2022/10/02 05:22:13;;;;;;;8.32;2.33;;;12.20;99.90;;;;;;4975780;28;20107;-85
2022/10/02 05:25:00;;;;;;;10.15;3.33;;;12.30;99.90;;;;;;4975979;28;20093;-83
2022/10/02 05:27:43;;;;;;;11.73;3.05;;;12.30;99.90;;;;;;4975401;28;20046;-84
2022/10/02 05:30:18;;;;;;;5.88;2.20;;;12.30;99.90;;;;;;4979237;28;20030;-83
2022/10/02 05:33:02;;;;;;;5.85;2.40;;;12.30;99.90;;;;;;4980657;28;20470;-83
2022/10/02 05:36:01;;;;;;;5.03;2.10;;;12.30;99.90;;;;;;4975883;28;20061;-84
2022/10/02 05:38:51;;;;;;;8.43;2.13;;;12.20;99.90;;;;;;4974977;28;20038;-84
2022/10/02 05:41:32;;;;;;;8.07;2.20;;;12.20;99.90;;;;;;4975063;28;20023;-84
2022/10/02 05:44:07;;;;;;;9.65;2.72;;;12.20;99.90;;;;;;4975366;28;20030;-84
2022/10/02 05:46:57;;;;;;;8.55;2.70;;;12.20;99.90;;;;;;4978454;28;20027;-84
2022/10/02 05:49:59;;;;;;;6.18;2.53;;;12.20;99.90;;;;;;4963782;28;20043;-84
2022/10/02 05:52:36;;;;;;;9.00;2.45;;;12.20;99.90;;;;;;4962715;28;20050;-85
2022/10/02 05:55:26;;;;;;;7.22;2.22;;;12.20;99.90;;;;;;4975733;28;20101;-84
2022/10/02 05:58:18;;;;;;;8.05;2.00;;;12.20;99.90;;;;;;4974594;28;20446;-84
2022/10/02 06:01:08;;;;;;;8.02;2.00;;;12.20;99.90;;;;;;4975108;28;20025;-84
2022/10/02 06:04:06;;;;;;;6.57;1.63;;;12.20;99.90;;;;;;4975315;28;20426;-85
2022/10/02 06:06:45;;;;;;;6.30;1.90;;;12.20;99.90;;;;;;4995207;28;20015;-83
2022/10/02 06:09:33;;;;;;;7.55;2.10;;;12.20;99.90;;;;;;4998815;28;20011;-83
2022/10/02 06:12:06;;;;;;;4.90;2.22;;;12.40;99.90;;;;;;4976952;28;20023;-84
2022/10/02 06:14:32;;;;;;;;;;;12.40;99.90;;;;;;4992125;28;20031;-84
2022/10/02 06:17:13;;;;;;;5.45;1.83;;;12.40;99.90;;;;;;4975339;28;19933;-85
2022/10/02 06:20:11;;;;;;;5.25;1.60;;;12.50;99.90;;;;;;4975416;28;20234;-84
2022/10/02 06:22:49;;;;;;;5.55;1.55;;;12.50;99.90;;;;;;4988003;28;20035;-84
2022/10/02 06:25:40;;;;;;;5.40;1.50;;;12.50;99.90;;;;;;4990807;28;20026;-85
2022/10/02 06:28:24;;;;;;;6.80;1.98;;;12.50;99.90;;;;;;4974957;28;20019;-84
2022/10/02 06:31:08;;;;;;;4.45;1.40;;;12.50;99.90;;;;;;4974695;28;20030;-83
2022/10/02 06:33:36;;;;;;;7.30;1.92;;;12.60;99.90;;;;;;4990697;28;20018;-83
2022/10/02 06:36:07;;;;;;;6.63;1.70;;;12.70;99.90;;;;;;4974151;28;20493;-83
2022/10/02 06:39:02;;;;;;;5.57;1.60;;;12.70;99.90;;;;;;4974370;28;20026;-84
2022/10/02 06:41:40;;;;;;;4.97;1.50;;;12.80;99.90;;;;;;4961674;28;20485;-84
2022/10/02 06:44:11;;;;;;;5.88;1.60;;;12.80;99.90;;;;;;4974123;28;20113;-84
2022/10/02 06:46:48;;;;;;;5.28;1.40;;;12.80;99.90;;;;;;4974112;28;20430;-84
2022/10/02 06:49:36;;;;;;;5.47;1.50;;;12.80;99.90;;;;;;4965122;28;20074;-84
2022/10/02 06:52:43;;;;;;;3.97;1.52;;;12.80;99.90;;;;;;4975238;28;20030;-83
2022/10/02 06:55:34;;;;;;;6.47;1.80;;;12.80;99.90;;;;;;4964242;28;20073;-83
2022/10/02 06:58:31;;;;;;;5.40;1.70;;;12.90;99.90;;;;;;4973736;28;20054;-83
2022/10/02 07:01:07;;;;;;;4.78;1.30;;;12.90;99.90;;;;;;4972145;28;20035;-84
2022/10/02 07:03:36;;;;;;;4.93;1.65;;;12.90;99.90;;;;;;4975188;28;20027;-84
2022/10/02 07:06:05;;;;;;;6.00;1.67;;;12.90;99.90;;;;;;4973662;28;20496;-84
2022/10/02 07:09:05;;;;;;;5.53;1.35;;;13.00;99.90;;;;;;4973651;28;20027;-83
2022/10/02 07:11:47;;;;;;;7.97;2.30;;;13.10;99.90;;;;;;4974136;28;20026;-84
2022/10/02 07:14:19;;;;;;;6.07;1.60;;;13.10;99.90;;;;;;4976779;28;20533;-84
2022/10/02 07:17:15;;;;;;;6.40;1.77;;;13.20;99.90;;;;;;4973901;28;20478;-83
2022/10/02 07:19:50;;;;;;;7.53;2.00;;;13.30;99.90;;;;;;4974065;28;20474;-84
2022/10/02 07:22:41;;;;;;;6.70;2.28;;;13.30;99.90;;;;;;4972391;28;20064;-84
2022/10/02 07:25:41;;;;;;;6.13;1.80;;;13.30;99.90;;;;;;4972731;28;20125;-84
2022/10/02 07:28:26;;;;;;;7.40;1.80;;;13.40;99.90;;;;;;4973871;28;20030;-84
2022/10/02 07:31:00;;;;;;;7.15;2.00;;;13.50;99.90;;;;;;4974091;28;20038;-84
2022/10/02 07:33:37;;;;;;;5.55;1.85;;;13.60;99.90;;;;;;4972825;28;20386;-84
2022/10/02 07:36:16;;;;;;;7.00;2.10;;;13.70;99.90;;;;;;4972485;28;20046;-84
2022/10/02 07:38:54;;;;;;;8.35;2.58;;;13.90;99.90;;;;;;4972668;28;20474;-84
2022/10/02 07:41:29;;;;;;;7.10;2.42;;;14.00;99.90;;;;;;4972809;28;20065;-84
2022/10/02 07:44:20;;;;;;;7.32;2.25;;;14.10;99.90;;;;;;4989201;28;20031;-85
2022/10/02 07:47:22;;;;;;;8.00;2.20;;;14.20;99.90;;;;;;4983934;28;20019;-85
2022/10/02 07:50:13;;;;;;;7.07;1.98;;;14.30;99.90;;;;;;4972133;28;20016;-84
2022/10/02 07:52:53;;;;;;;10.27;2.60;;;14.30;99.90;;;;;;4960946;28;20097;-84
2022/10/02 07:55:21;;;;;;;7.10;2.30;;;14.30;99.90;;;;;;4980073;28;20121;-84
2022/10/02 07:58:12;;;;;;;7.53;2.00;;;14.30;99.90;;;;;;4993391;28;20131;-84
2022/10/02 08:00:52;;;;;;;6.88;1.50;;;14.40;99.90;;;;;;5001481;28;20054;-80
2022/10/02 08:03:26;;;;;;;7.93;2.25;;;14.40;99.90;;;;;;4992223;28;20035;-84
2022/10/02 08:05:58;;;;;;;7.47;2.25;;;14.50;99.90;;;;;;4961767;28;20125;-83
2022/10/02 08:08:51;;;;;;;5.13;1.95;;;14.60;99.90;;;;;;4976820;28;20390;-83
2022/10/02 08:11:58;;;;;;;6.25;1.70;;;14.60;99.90;;;;;;4976640;28;20055;-84
2022/10/02 08:14:40;;;;;;;6.30;2.00;;;14.70;99.90;;;;;;4966113;28;20035;-84
2022/10/02 08:17:30;;;;;;;8.40;2.40;;;14.70;99.90;;;;;;4960116;28;20049;-83
2022/10/02 08:20:12;;;;;;;7.47;2.13;;;14.80;99.90;;;;;;4976759;28;20086;-84
2022/10/02 08:22:45;;;;;;;5.35;1.40;;;14.90;99.90;;;;;;4977265;28;20470;-83
2022/10/02 08:25:55;;;;;;;5.78;1.45;;;15.00;99.90;;;;;;4958994;28;20093;-85
2022/10/02 08:28:27;;;;;;;5.47;1.67;;;15.10;99.90;;;;;;4986812;28;20431;-84
2022/10/02 08:30:57;;;;;;;6.40;1.48;;;15.30;99.90;;;;;;4975419;28;20105;-84
2022/10/02 08:33:24;;;;;;;9.98;1.90;;;15.40;99.90;;;;;;4975654;28;20077;-84
2022/10/02 08:35:50;;;;;;;6.38;1.60;;;15.50;99.90;;;;;;4975757;28;20053;-84
2022/10/02 08:38:47;;;;;;;8.52;1.77;;;15.50;99.90;;;;;;4976424;28;20391;-84
2022/10/02 08:41:55;;;;;;;7.60;1.88;;;15.60;99.90;;;;;;4975487;28;20423;-84
2022/10/02 08:45:01;;;;;;;6.38;1.45;;;15.70;99.90;;;;;;4973918;28;20102;-85
2022/10/02 08:47:55;;;;;;;6.07;1.80;;;15.70;99.90;;;;;;4976361;28;20090;-84
2022/10/02 08:50:47;;;;;;;5.93;2.00;;;15.80;99.90;;;;;;4978942;28;20030;-84
2022/10/02 08:53:24;;;;;;;7.72;2.13;;;15.90;99.90;;;;;;4975104;28;20383;-83
2022/10/02 08:56:15;;;;;;;8.60;1.98;;;15.90;99.90;;;;;;4975390;28;20058;-85
2022/10/02 08:58:56;;;;;;;10.15;2.30;;;15.90;99.90;;;;;;4974990;28;20054;-84
2022/10/02 09:01:33;;;;;;;8.52;2.00;;;16.00;99.90;;;;;;4975470;28;20038;-84
2022/10/02 09:04:21;;;;;;;10.50;2.42;;;16.00;99.90;;;;;;4974841;28;20019;-84
2022/10/02 09:07:08;;;;;;;7.72;2.15;;;16.10;99.90;;;;;;4975051;28;20045;-84
2022/10/02 09:09:49;;;;;;;5.25;1.35;;;16.20;99.90;;;;;;4974970;28;20030;-83
2022/10/02 09:12:36;;;;;;;5.65;1.52;;;16.40;99.90;;;;;;4974798;28;20027;-84
2022/10/02 09:15:19;;;;;;;7.13;1.90;;;16.50;99.90;;;;;;4973989;28;20038;-84
2022/10/02 09:17:47;;;;;;;6.70;1.90;;;16.70;99.90;;;;;;4990836;28;20117;-83
2022/10/02 09:20:46;;;;;;;9.27;1.75;;;17.10;99.90;;;;;;4974764;28;20027;-83
2022/10/02 09:23:33;;;;;;;6.57;1.80;;;17.60;99.90;;;;;;4974777;28;20022;-83
2022/10/02 09:26:27;;;;;;;6.00;1.63;;;17.80;99.90;;;;;;4975407;28;20046;-83
2022/10/02 09:29:11;;;;;;;;;;;18.10;99.90;;;;;;4975892;28;20027;-82
2022/10/02 09:32:03;;;;;;;11.40;1.70;;;18.10;99.90;;;;;;4975859;28;19906;-83
2022/10/02 09:35:24;;;;;;;7.38;2.03;;;18.30;99.90;;;;;;4990528;28;20038;-83
2022/10/02 09:38:13;;;;;;;6.55;1.60;;;18.30;99.90;;;;;;4958160;28;20034;-83
2022/10/02 09:40:59;;;;;;;9.75;2.00;;;18.40;99.90;;;;;;4971087;28;20431;-83
2022/10/02 09:44:05;;;;;;;7.72;1.75;;;18.70;99.90;;;;;;4987186;28;20026;-82
2022/10/02 09:46:53;;;;;;;4.65;1.27;;;19.10;99.90;;;;;;4971549;28;20030;-82
2022/10/02 09:49:56;;;;;;;6.07;1.33;;;19.60;99.90;;;;;;4970202;28;20034;-82
2022/10/02 09:53:11;;;;;;;6.72;1.50;;;20.00;99.90;;;;;;4987292;28;20027;-82
2022/10/02 09:56:10;;;;;;;8.65;1.90;;;20.20;99.90;;;;;;4972076;28;20098;-82
2022/10/02 09:59:07;;;;;;;5.60;1.42;;;20.40;99.90;;;;;;4939053;28;20055;-82
2022/10/02 10:01:38;;;;;;;7.13;1.50;;;20.50;99.90;;;;;;5005097;28;20073;-81
2022/10/02 10:04:23;;;;;;;7.15;1.20;;;20.50;99.90;;;;;;5002451;28;20023;-80
2022/10/02 10:07:12;;;;;;;4.32;1.17;;;20.40;99.90;;;;;;4989535;28;20106;-81
2022/10/02 10:10:02;;;;;;;5.82;1.35;;;20.40;99.90;;;;;;4974533;28;20042;-81
2022/10/02 10:13:06;;;;;;;6.40;1.80;;;20.30;99.90;;;;;;4986126;28;20085;-82
2022/10/02 10:16:05;;;;;;;9.10;1.77;;;20.00;99.90;;;;;;4968293;28;20394;-82
2022/10/02 10:18:53;;;;;;;5.57;1.40;;;19.70;99.90;;;;;;4969432;28;20062;-80
2022/10/02 10:21:56;;;;;;;5.35;1.20;;;19.40;99.90;;;;;;4975333;28;20047;-82
2022/10/02 10:24:49;;;;;;;3.72;1.38;;;19.00;99.90;;;;;;4960738;28;20089;-81
2022/10/02 10:27:43;;;;;;;5.20;1.60;;;18.50;99.90;;;;;;4972452;28;20127;-82
2022/10/02 10:30:29;;;;;;;7.00;1.88;;;18.30;99.90;;;;;;4972689;28;20482;-82
2022/10/02 10:33:44;;;;;;;6.60;1.30;;;18.10;99.90;;;;;;4988367;28;20094;-82
2022/10/02 10:39:40;;;;;;;4.80;1.40;;;17.70;99.90;;;;;;4972155;28;20026;-81
2022/10/02 10:42:37;;;;;;;5.60;1.17;;;17.60;99.90;;;;;;4972178;28;20090;-81
2022/10/02 10:45:32;;;;;;;6.65;0.95;;;17.50;99.90;;;;;;4988072;28;20034;-81
2022/10/02 10:48:21;;;;;;;6.43;1.23;;;17.40;99.90;;;;;;4986742;28;20378;-81
2022/10/02 10:51:15;;;;;;;6.65;1.27;;;17.30;99.90;;;;;;4970033;28;20386;-81
2022/10/02 10:54:02;;;;;;;;;;;17.30;99.90;;;;;;4971892;28;20491;-81
2022/10/02 10:56:35;;;;;;;4.18;1.10;;;17.20;99.90;;;;;;4970906;28;19922;-81
2022/10/02 10:59:26;;;;;;;3.90;1.00;;;17.20;99.90;;;;;;4969984;28;20802;-81
2022/10/02 11:02:25;;;;;;;4.57;0.90;;;17.20;99.90;;;;;;4985380;28;20081;-82
2022/10/02 11:05:26;;;;;;;5.57;1.02;;;17.20;99.90;;;;;;4982921;28;20439;-82
2022/10/02 11:08:11;;;;;;;5.35;0.88;;;17.30;99.90;;;;;;4980678;28;20081;-81
2022/10/02 11:10:46;;;;;;;4.28;1.30;;;17.30;99.90;;;;;;4984496;28;20031;-81
2022/10/02 11:13:35;;;;;;;6.82;1.10;;;17.30;99.90;;;;;;4966741;28;20122;-81
2022/10/02 11:16:06;;;;;;;4.97;0.93;;;17.20;99.90;;;;;;4964143;28;20106;-82
2022/10/02 11:18:39;;;;;;;5.30;1.00;;;17.20;99.90;;;;;;4970268;28;20042;-82
2022/10/02 11:21:51;;;;;;;5.20;1.50;;;17.20;99.90;;;;;;4970808;28;20057;-81
2022/10/02 11:24:35;;;;;;;4.65;1.10;;;17.30;99.90;;;;;;4970807;28;20031;-82
2022/10/02 11:27:33;;;;;;;4.32;1.25;;;17.70;99.90;;;;;;4984362;28;20453;-82
2022/10/02 11:30:22;;;;;;;5.95;1.15;;;18.20;99.90;;;;;;4987363;28;20041;-81
2022/10/02 11:33:27;;;;;;;4.45;0.98;;;18.40;99.90;;;;;;4955610;28;20031;-81
2022/10/02 11:36:05;;;;;;;5.07;1.60;;;18.50;99.90;;;;;;4969932;28;20047;-82
2022/10/02 11:39:04;;;;;;;3.10;1.10;;;18.40;99.90;;;;;;4971987;28;20039;-82
2022/10/02 11:42:04;;;;;;;5.50;0.90;;;18.30;99.90;;;;;;4970222;28;20027;-81
2022/10/02 11:45:03;;;;;;;6.45;1.33;;;18.30;99.90;;;;;;4971972;28;20023;-82
2022/10/02 11:47:56;;;;;;;4.35;0.73;;;18.20;99.90;;;;;;4957553;28;20046;-81
2022/10/02 11:50:51;;;;;;;5.82;1.00;;;18.20;99.90;;;;;;4969310;28;20042;-81
2022/10/02 11:53:25;;;;;;;8.23;1.40;;;18.80;99.90;;;;;;4973063;28;20030;-81
2022/10/02 11:56:02;;;;;;;4.82;1.20;;;19.10;99.90;;;;;;4970984;28;20043;-81
2022/10/02 11:58:55;;;;;;;6.55;1.20;;;19.00;99.90;;;;;;5004147;28;20054;-79
2022/10/02 12:01:47;;;;;;;5.22;1.30;;;18.90;99.90;;;;;;4993311;28;20115;-80
2022/10/02 12:04:54;;;;;;;4.13;1.10;;;19.00;99.90;;;;;;4991451;28;20046;-81
2022/10/02 12:07:59;;;;;;;4.43;1.23;;;19.20;99.90;;;;;;4974379;28;20049;-81
2022/10/02 12:10:40;;;;;;;5.53;1.15;;;19.90;99.90;;;;;;4951758;28;20034;-81
2022/10/02 12:13:35;;;;;;;4.80;1.10;;;20.00;99.90;;;;;;4973118;28;20034;-82
2022/10/02 12:16:10;;;;;;;6.93;1.17;;;19.80;99.90;;;;;;4968629;28;20055;-81
2022/10/02 12:18:55;;;;;;;4.90;0.75;;;19.30;99.90;;;;;;4977624;28;20026;-81
2022/10/02 12:28:20;;;;;;;5.07;1.20;;;21.40;99.90;;;;;;4971934;28;20430;-82
2022/10/02 12:30:51;;;;;;;5.18;1.40;;;21.90;99.90;;;;;;4965418;28;20394;-82
2022/10/02 12:33:42;;;;;;;4.30;0.90;;;22.80;99.90;;;;;;4971794;28;20023;-82
2022/10/02 12:36:32;;;;;;;4.35;0.93;;;23.80;99.90;;;;;;4984202;28;20049;-81
2022/10/02 12:39:19;;;;;;;6.35;1.20;;;24.50;99.90;;;;;;4970442;28;20018;-82
2022/10/02 12:42:10;;;;;;;4.75;1.08;;;24.70;99.90;;;;;;4970528;28;20030;-81
2022/10/02 12:45:24;;;;;;;6.35;1.45;;;24.90;99.90;;;;;;4970541;28;20014;-81
2022/10/02 12:48:00;;;;;;;7.32;1.65;;;25.40;99.90;;;;;;4953193;28;20061;-82
2022/10/02 12:51:06;;;;;;;6.68;1.38;;;25.40;99.90;;;;;;4983380;28;20037;-80
2022/10/02 12:54:09;;;;;;;6.20;1.20;;;25.10;99.90;;;;;;4984528;28;20031;-80
2022/10/02 12:56:47;;;;;;;5.22;1.13;;;24.50;99.90;;;;;;4985342;28;20090;-82
2022/10/02 12:59:31;;;;;;;5.25;1.00;;;24.50;99.90;;;;;;4985892;28;20036;-81
2022/10/02 13:02:18;;;;;;;5.65;1.30;;;24.40;99.90;;;;;;4969014;28;20035;-81
2022/10/02 13:04:44;;;;;;;4.40;1.20;;;24.30;99.90;;;;;;4979968;28;20035;-81
2022/10/02 13:07:50;;;;;;;2.92;0.90;;;23.90;99.90;;;;;;4972676;28;20792;-81
2022/10/02 13:10:33;;;;;;;3.25;0.80;;;24.00;99.90;;;;;;4986038;28;20091;-81
2022/10/02 13:13:08;;;;;;;;;;;23.80;99.90;;;;;;4972396;28;20442;-81
2022/10/02 13:15:59;;;;;;;4.10;1.10;;;23.20;99.90;;;;;;4970882;28;19972;-81
2022/10/02 13:19:01;;;;;;;5.70;1.23;;;22.90;99.90;;;;;;4984887;28;20133;-80
2022/10/02 13:21:43;;;;;;;4.03;1.08;;;23.10;99.90;;;;;;4984549;28;20031;-81
2022/10/02 13:24:24;;;;;;;5.22;1.10;;;23.90;99.90;;;;;;4983176;28;20098;-81
2022/10/02 13:27:09;;;;;;;4.22;1.25;;;24.70;99.90;;;;;;4982342;28;20035;-82
2022/10/02 13:29:41;;;;;;;4.45;1.00;;;24.70;99.90;;;;;;4986067;28;20055;-81
2022/10/02 13:32:37;;;;;;;4.72;1.17;;;24.70;99.90;;;;;;4969616;28;20115;-81
2022/10/02 13:35:31;;;;;;;4.50;0.98;;;25.10;99.90;;;;;;4969270;28;20069;-81
2022/10/02 13:38:26;;;;;;;4.00;0.82;;;25.80;99.90;;;;;;4971175;28;20421;-81
2022/10/02 13:41:16;;;;;;;4.68;1.10;;;26.40;99.90;;;;;;4963038;28;20030;-81
2022/10/02 13:44:06;;;;;;;4.28;1.23;;;26.80;99.90;;;;;;4981661;28;20028;-82
2022/10/02 13:47:03;;;;;;;5.57;0.93;;;26.70;99.90;;;;;;4973741;28;20043;-81
2022/10/02 13:49:59;;;;;;;3.67;1.10;;;26.20;99.90;;;;;;4964897;28;20360;-81
2022/10/02 13:52:44;;;;;;;3.33;1.00;;;25.20;99.90;;;;;;4967403;28;20069;-81
2022/10/02 13:55:36;;;;;;;4.70;1.17;;;25.20;99.90;;;;;;4964304;28;20034;-82
2022/10/02 13:58:37;;;;;;;3.80;1.20;;;25.60;99.90;;;;;;4961760;28;20098;-82
2022/10/02 14:01:24;;;;;;;3.42;1.10;;;25.90;99.90;;;;;;4967975;28;20037;-81
2022/10/02 14:04:09;;;;;;;4.95;1.08;;;25.80;99.90;;;;;;4966965;28;20416;-82
2022/10/02 14:06:45;;;;;;;4.22;0.98;;;25.10;99.90;;;;;;4964480;28;20078;-83
2022/10/02 14:09:48;;;;;;;5.38;1.15;;;25.10;99.90;;;;;;4965456;28;20038;-82
2022/10/02 14:12:53;;;;;;;4.20;1.05;;;25.60;99.90;;;;;;4980157;28;20746;-80
2022/10/02 14:15:29;;;;;;;4.72;1.00;;;25.80;99.90;;;;;;4960888;28;20304;-80
2022/10/02 14:18:24;;;;;;;6.10;1.20;;;26.10;99.90;;;;;;4961049;28;20039;-81
2022/10/02 14:21:14;;;;;;;2.95;0.75;;;26.50;99.90;;;;;;4973306;28;20034;-81
2022/10/02 14:23:50;;;;;;;3.70;0.93;;;26.50;99.90;;;;;;4959319;28;20031;-80
2022/10/02 14:26:49;;;;;;;2.35;0.70;;;26.30;99.90;;;;;;4966104;28;20038;-80